Time;durP1;ratioP1;P1;durP2;ratioP2;P2;SDS_P1;SDS_P2;PMS_P1;PMS_P2;Temp;Humidity;BMP_temperature;BMP_pressure;BME280_temperature;BME280_humidity;BME280_pressure;Samples;Min_cycle;Max_cycle;Signal;HPM_P1;HPM_P2
2022/09/05 00:02:28;;;;;;;7.70;3.67;;;18.50;92.90;;;;;;5028106;28;20528;-77
2022/09/05 00:05:22;;;;;;;6.65;3.38;;;18.50;93.00;;;;;;5024897;28;20046;-78
2022/09/05 00:08:11;;;;;;;6.13;3.80;;;18.50;92.80;;;;;;5026853;28;20042;-78
2022/09/05 00:10:46;;;;;;;5.28;3.03;;;18.50;92.90;;;;;;4981188;28;20409;-78
2022/09/05 00:13:20;;;;;;;6.38;3.00;;;18.50;92.40;;;;;;4997407;28;20088;-78
2022/09/05 00:16:11;;;;;;;5.43;3.03;;;18.50;92.10;;;;;;5031406;28;20053;-78
2022/09/05 00:19:04;;;;;;;5.07;2.80;;;18.50;91.80;;;;;;5030794;28;20048;-77
2022/09/05 00:21:45;;;;;;;5.10;2.55;;;18.50;91.50;;;;;;5031307;28;20065;-78
2022/09/05 00:24:25;;;;;;;5.38;2.90;;;18.60;91.50;;;;;;4997284;28;20069;-78
2022/09/05 00:26:54;;;;;;;6.20;3.67;;;18.60;91.30;;;;;;4998595;28;20044;-78
2022/09/05 00:29:37;;;;;;;6.50;3.60;;;18.60;91.30;;;;;;4998360;28;20384;-77
2022/09/05 00:32:44;;;;;;;7.13;4.32;;;18.50;91.40;;;;;;4998204;28;20049;-77
2022/09/05 00:35:28;;;;;;;7.13;4.60;;;18.50;91.60;;;;;;4997997;28;20144;-77
2022/09/05 00:37:55;;;;;;;5.68;3.38;;;18.50;92.50;;;;;;5030634;28;20045;-77
2022/09/05 00:40:27;;;;;;;6.13;3.53;;;18.40;92.80;;;;;;5030391;28;20103;-77
2022/09/05 00:43:02;;;;;;;;;;;18.30;92.80;;;;;;5031136;28;20053;-78
2022/09/05 00:45:57;;;;;;;7.88;4.40;;;18.30;92.60;;;;;;4997987;28;19921;-77
2022/09/05 00:48:52;;;;;;;7.22;4.70;;;18.30;93.00;;;;;;4986824;28;20047;-78
2022/09/05 00:51:41;;;;;;;6.28;4.45;;;18.20;94.40;;;;;;5030483;28;20046;-77
2022/09/05 00:54:17;;;;;;;6.25;3.70;;;18.10;94.20;;;;;;5013134;28;20046;-77
2022/09/05 00:57:27;;;;;;;6.22;3.80;;;18.10;94.00;;;;;;5034490;28;20492;-77
2022/09/05 01:00:18;;;;;;;6.57;3.38;;;18.10;94.00;;;;;;5001494;28;20149;-77
2022/09/05 01:03:08;;;;;;;5.77;3.40;;;18.10;93.60;;;;;;5030492;28;20034;-77
2022/09/05 01:05:52;;;;;;;8.65;4.47;;;18.00;93.50;;;;;;5017256;28;20042;-77
2022/09/05 01:08:28;;;;;;;6.50;5.00;;;18.00;93.70;;;;;;5029822;28;20046;-77
2022/09/05 01:11:24;;;;;;;7.22;4.53;;;18.00;94.20;;;;;;5048978;28;20555;-78
2022/09/05 01:14:17;;;;;;;6.68;4.03;;;17.90;94.70;;;;;;5016851;28;20034;-77
2022/09/05 01:17:04;;;;;;;8.90;4.45;;;17.80;95.00;;;;;;5049861;28;20045;-76
2022/09/05 01:20:09;;;;;;;9.48;4.95;;;17.90;95.60;;;;;;5017084;28;20081;-77
2022/09/05 01:22:46;;;;;;;8.07;4.13;;;17.80;95.50;;;;;;4975785;28;20038;-77
2022/09/05 01:25:27;;;;;;;7.18;4.32;;;17.70;95.10;;;;;;5008754;28;20049;-77
2022/09/05 01:28:04;;;;;;;7.40;4.85;;;17.70;96.00;;;;;;5013446;28;20049;-77
2022/09/05 01:30:47;;;;;;;8.27;5.10;;;17.70;95.50;;;;;;5026378;28;20500;-77
2022/09/05 01:33:42;;;;;;;11.13;5.22;;;17.70;95.60;;;;;;5025702;28;20045;-77
2022/09/05 01:36:19;;;;;;;7.32;5.15;;;17.70;95.70;;;;;;5045671;28;20441;-76
2022/09/05 01:39:00;;;;;;;7.10;4.32;;;17.60;96.40;;;;;;5044510;28;20038;-77
2022/09/05 01:41:38;;;;;;;7.93;4.90;;;17.60;96.30;;;;;;5027227;28;20124;-78
2022/09/05 01:44:46;;;;;;;8.77;5.30;;;17.60;96.40;;;;;;5059946;28;20037;-78
2022/09/05 01:47:39;;;;;;;7.90;5.13;;;17.60;97.20;;;;;;5058852;28;20041;-77
2022/09/05 01:50:14;;;;;;;7.70;5.40;;;17.50;97.60;;;;;;5059684;28;20068;-78
2022/09/05 01:52:55;;;;;;;8.35;5.35;;;17.60;97.60;;;;;;5057175;28;20044;-78
2022/09/05 01:55:36;;;;;;;8.05;5.15;;;17.50;97.50;;;;;;5025936;28;20045;-77
2022/09/05 01:58:28;;;;;;;9.27;5.47;;;17.50;98.40;;;;;;5059127;28;20052;-77
2022/09/05 02:01:09;;;;;;;8.70;4.78;;;17.50;98.20;;;;;;5010384;28;20042;-78
2022/09/05 02:03:41;;;;;;;6.75;4.80;;;17.50;98.60;;;;;;5069717;28;20039;-76
2022/09/05 02:06:25;;;;;;;7.88;5.35;;;17.50;97.90;;;;;;5055014;28;20033;-78
2022/09/05 02:09:08;;;;;;;8.43;5.63;;;17.50;98.60;;;;;;5022407;28;20434;-77
2022/09/05 02:11:51;;;;;;;8.40;5.50;;;17.40;98.40;;;;;;5057204;28;20092;-77
2022/09/05 02:14:22;;;;;;;8.27;5.53;;;17.30;98.40;;;;;;5044694;28;20076;-77
2022/09/05 02:16:51;;;;;;;7.78;5.68;;;17.30;98.70;;;;;;5053160;28;20041;-77
2022/09/05 02:19:28;;;;;;;8.05;5.38;;;17.20;99.00;;;;;;5050345;28;20045;-77
2022/09/05 02:22:14;;;;;;;9.45;6.07;;;17.10;99.20;;;;;;5048588;28;20408;-77
2022/09/05 02:24:46;;;;;;;8.18;5.50;;;17.10;99.90;;;;;;5015289;28;20088;-77
2022/09/05 02:27:26;;;;;;;8.77;6.70;;;17.00;99.60;;;;;;5015430;28;20052;-77
2022/09/05 02:30:32;;;;;;;9.45;6.53;;;17.00;99.50;;;;;;5016214;28;20446;-77
2022/09/05 02:33:28;;;;;;;9.10;6.70;;;17.00;99.90;;;;;;5040427;28;20572;-77
2022/09/05 02:36:12;;;;;;;10.02;6.10;;;16.90;99.90;;;;;;5047940;28;20124;-77
2022/09/05 02:38:53;;;;;;;6.55;4.60;;;16.80;99.90;;;;;;5014585;28;20037;-77
2022/09/05 02:41:36;;;;;;;8.00;6.32;;;16.90;99.50;;;;;;5048867;28;20109;-77
2022/09/05 02:44:40;;;;;;;8.07;4.85;;;16.90;99.70;;;;;;4998353;28;20139;-77
2022/09/05 02:47:20;;;;;;;6.47;3.72;;;16.80;99.20;;;;;;4997357;28;20049;-77
2022/09/05 02:50:21;;;;;;;6.63;5.05;;;16.80;98.80;;;;;;5014444;28;20398;-77
2022/09/05 02:52:48;;;;;;;11.57;7.63;;;16.90;98.60;;;;;;5014761;28;20045;-77
2022/09/05 02:55:21;;;;;;;10.70;6.88;;;16.80;99.90;;;;;;5047830;28;20091;-77
2022/09/05 02:58:10;;;;;;;6.45;4.35;;;16.70;99.90;;;;;;5014487;28;20037;-77
2022/09/05 03:00:43;;;;;;;8.10;5.80;;;16.70;99.60;;;;;;5048358;28;20440;-77
2022/09/05 03:03:47;;;;;;;7.43;4.90;;;16.80;99.30;;;;;;5015032;28;20088;-77
2022/09/05 03:06:38;;;;;;;10.90;7.32;;;16.80;99.00;;;;;;4972183;28;20069;-77
2022/09/05 03:09:18;;;;;;;8.75;5.50;;;16.80;99.30;;;;;;4954696;28;20395;-77
2022/09/05 03:12:23;;;;;;;11.18;6.95;;;16.70;99.30;;;;;;4988155;28;20042;-77
2022/09/05 03:15:20;;;;;;;8.15;6.50;;;16.70;99.20;;;;;;5014555;28;20037;-77
2022/09/05 03:18:00;;;;;;;7.45;5.45;;;16.70;99.30;;;;;;5014218;28;20124;-77
2022/09/05 03:21:00;;;;;;;8.85;6.00;;;16.70;99.30;;;;;;5047992;28;20045;-77
2022/09/05 03:23:50;;;;;;;7.20;4.60;;;16.70;99.00;;;;;;5047162;28;20073;-77
2022/09/05 03:26:27;;;;;;;6.78;4.30;;;16.70;98.60;;;;;;5047318;28;20087;-76
2022/09/05 03:29:31;;;;;;;9.32;6.13;;;16.80;98.20;;;;;;5014614;28;20033;-77
2022/09/05 03:31:59;;;;;;;8.80;6.53;;;16.70;98.10;;;;;;5014081;28;20094;-77
2022/09/05 03:34:46;;;;;;;7.07;4.45;;;16.70;98.50;;;;;;5025770;28;20124;-77
2022/09/05 03:37:40;;;;;;;8.20;5.70;;;16.60;98.40;;;;;;4998916;28;20515;-77
2022/09/05 03:40:35;;;;;;;7.95;5.88;;;16.60;98.30;;;;;;5014222;28;20046;-77
2022/09/05 03:43:24;;;;;;;7.80;6.25;;;16.60;98.70;;;;;;5014439;28;20121;-77
2022/09/05 03:45:53;;;;;;;10.02;6.90;;;16.50;99.30;;;;;;4987580;28;20045;-77
2022/09/05 03:48:40;;;;;;;10.68;7.60;;;16.50;99.70;;;;;;5051417;28;20034;-77
2022/09/05 03:51:28;;;;;;;7.45;5.45;;;16.40;99.90;;;;;;5035309;28;20095;-77
2022/09/05 03:54:06;;;;;;;8.18;6.15;;;16.30;99.90;;;;;;5017091;28;20045;-77
2022/09/05 03:57:17;;;;;;;8.18;5.30;;;16.30;99.80;;;;;;5051969;28;20670;-77
2022/09/05 04:00:08;;;;;;;6.05;4.60;;;16.30;99.90;;;;;;5016920;28;20102;-77
2022/09/05 04:02:57;;;;;;;8.50;5.90;;;16.30;99.40;;;;;;5019622;28;20127;-77
2022/09/05 04:05:41;;;;;;;7.30;4.10;;;16.40;99.20;;;;;;5042000;28;20080;-77
2022/09/05 04:08:38;;;;;;;7.10;4.28;;;16.40;98.90;;;;;;4989319;28;20038;-77
2022/09/05 04:11:15;;;;;;;8.73;6.75;;;16.40;98.40;;;;;;5051025;28;20037;-77
2022/09/05 04:13:53;;;;;;;6.40;4.35;;;16.40;98.40;;;;;;5018216;28;20072;-77
2022/09/05 04:16:30;;;;;;;7.15;4.55;;;16.40;98.60;;;;;;5050842;28;20033;-77
2022/09/05 04:19:16;;;;;;;7.13;5.28;;;16.40;98.30;;;;;;5051071;28;20038;-77
2022/09/05 04:21:48;;;;;;;8.35;6.40;;;16.40;98.20;;;;;;5017760;28;20100;-77
2022/09/05 04:24:57;;;;;;;11.20;6.53;;;16.30;98.40;;;;;;5016858;28;20034;-76
2022/09/05 04:27:53;;;;;;;7.75;6.45;;;16.30;99.50;;;;;;4977596;28;20113;-77
2022/09/05 04:30:43;;;;;;;8.88;6.32;;;16.20;99.50;;;;;;4966692;28;20505;-77
2022/09/05 04:33:20;;;;;;;8.18;6.10;;;16.20;99.40;;;;;;5010615;28;20041;-77
2022/09/05 04:36:03;;;;;;;9.50;6.72;;;16.20;99.30;;;;;;5050803;28;20065;-77
2022/09/05 04:38:41;;;;;;;8.98;6.07;;;16.10;99.00;;;;;;5002597;28;20064;-77
2022/09/05 04:41:15;;;;;;;9.93;8.27;;;16.10;99.00;;;;;;5015137;28;20041;-77
2022/09/05 04:43:43;;;;;;;10.05;7.38;;;16.00;99.30;;;;;;5017263;28;20128;-77
2022/09/05 04:46:35;;;;;;;7.70;5.18;;;16.00;99.80;;;;;;5018028;28;20484;-77
2022/09/05 04:49:18;;;;;;;6.57;4.97;;;16.00;99.70;;;;;;5009555;28;20042;-77
2022/09/05 04:52:08;;;;;;;6.63;4.57;;;15.90;99.40;;;;;;5017449;28;20049;-77
2022/09/05 04:55:07;;;;;;;6.55;4.32;;;16.00;99.00;;;;;;5016956;28;20103;-77
2022/09/05 04:57:50;;;;;;;9.00;7.65;;;16.00;98.60;;;;;;5026114;28;20049;-77
2022/09/05 05:00:26;;;;;;;6.68;5.15;;;16.00;98.80;;;;;;5017204;28;20126;-77
2022/09/05 05:02:56;;;;;;;7.78;5.03;;;16.00;99.00;;;;;;5036737;28;20566;-77
2022/09/05 05:05:26;;;;;;;6.93;4.85;;;16.00;98.80;;;;;;5050339;28;20064;-77
2022/09/05 05:08:03;;;;;;;6.20;4.50;;;16.00;98.60;;;;;;5049270;28;20033;-77
2022/09/05 05:10:44;;;;;;;7.28;5.05;;;16.00;98.20;;;;;;5001085;28;20137;-75
2022/09/05 05:13:19;;;;;;;9.38;7.32;;;16.00;98.30;;;;;;5027915;28;20566;-75
2022/09/05 05:16:14;;;;;;;8.77;6.22;;;16.00;98.60;;;;;;4996984;28;20068;-75
2022/09/05 05:18:55;;;;;;;6.57;4.40;;;16.00;98.60;;;;;;4985926;28;20073;-74
2022/09/05 05:21:29;;;;;;;8.50;6.72;;;16.10;98.40;;;;;;5034348;28;20094;-75
2022/09/05 05:24:12;;;;;;;8.75;7.25;;;16.10;98.10;;;;;;5020376;28;20038;-75
2022/09/05 05:26:54;;;;;;;7.05;5.20;;;16.10;98.30;;;;;;5004155;28;20227;-75
2022/09/05 05:29:26;;;;;;;8.90;7.82;;;16.20;98.20;;;;;;5003228;28;20424;-76
2022/09/05 05:31:55;;;;;;;10.90;8.55;;;16.20;98.60;;;;;;5018670;28;20489;-75
2022/09/05 05:34:52;;;;;;;11.10;9.15;;;16.10;99.00;;;;;;5003163;28;20457;-74
2022/09/05 05:37:30;;;;;;;7.28;5.85;;;16.10;99.50;;;;;;4991410;28;20106;-75
2022/09/05 05:40:07;;;;;;;8.68;5.93;;;16.10;99.60;;;;;;4998322;28;20046;-75
2022/09/05 05:42:35;;;;;;;10.32;5.70;;;16.10;99.20;;;;;;5037631;28;21388;-75
2022/09/05 05:45:01;;;;;;;11.57;8.25;;;16.10;99.20;;;;;;5031194;28;20054;-74
2022/09/05 05:47:41;;;;;;;10.13;7.57;;;16.10;99.40;;;;;;5022690;28;20038;-75
2022/09/05 05:50:48;;;;;;;11.50;8.70;;;16.10;99.60;;;;;;4988661;28;20433;-74
2022/09/05 05:53:38;;;;;;;7.10;5.50;;;16.10;99.90;;;;;;5004300;28;20605;-74
2022/09/05 05:56:14;;;;;;;9.27;5.10;;;16.10;99.90;;;;;;4995856;28;20500;-74
2022/09/05 05:58:58;;;;;;;9.43;8.32;;;16.10;99.50;;;;;;5031411;28;20068;-74
2022/09/05 06:01:39;;;;;;;7.35;6.43;;;16.10;99.40;;;;;;5021497;28;20037;-75
2022/09/05 06:04:38;;;;;;;10.40;8.32;;;16.10;99.70;;;;;;5007943;28;20049;-74
2022/09/05 06:07:24;;;;;;;10.18;6.03;;;16.10;99.90;;;;;;5013135;28;20523;-75
2022/09/05 06:10:06;;;;;;;11.73;9.65;;;16.10;99.90;;;;;;5042785;28;20110;-74
2022/09/05 06:13:01;;;;;;;11.88;10.07;;;16.20;99.90;;;;;;5054897;28;20503;-75
2022/09/05 06:15:54;;;;;;;15.02;10.68;;;16.30;99.90;;;;;;5018486;28;20049;-76
2022/09/05 06:18:58;;;;;;;11.43;9.10;;;16.40;99.90;;;;;;5023928;28;20052;-74
2022/09/05 06:21:35;;;;;;;12.63;9.68;;;16.60;99.90;;;;;;5023978;28;20073;-74
2022/09/05 06:24:25;;;;;;;10.63;8.77;;;16.90;99.90;;;;;;5051242;28;20504;-74
2022/09/05 06:27:35;;;;;;;13.23;9.73;;;17.60;99.90;;;;;;5023924;28;20126;-74
2022/09/05 06:30:04;;;;;;;13.20;9.70;;;18.20;99.90;;;;;;5034289;28;20124;-75
2022/09/05 06:32:46;;;;;;;12.48;8.50;;;18.40;99.90;;;;;;5021258;28;20120;-74
2022/09/05 06:35:50;;;;;;;10.45;9.02;;;18.60;99.80;;;;;;5024722;28;20057;-75
2022/09/05 06:38:27;;;;;;;12.02;9.15;;;18.80;99.90;;;;;;5019603;28;20441;-74
2022/09/05 06:41:19;;;;;;;11.10;8.50;;;19.10;98.50;;;;;;5050223;28;20060;-74
2022/09/05 06:44:14;;;;;;;10.27;8.48;;;19.30;97.90;;;;;;5013255;28;20111;-74
2022/09/05 06:46:44;;;;;;;10.68;7.70;;;19.60;97.00;;;;;;5051123;28;20062;-73
2022/09/05 06:49:33;;;;;;;13.27;8.10;;;20.00;95.50;;;;;;5021912;28;20040;-74
2022/09/05 06:52:20;;;;;;;9.20;7.90;;;20.20;95.90;;;;;;5051365;28;20159;-73
2022/09/05 06:55:33;;;;;;;10.77;7.82;;;20.50;94.40;;;;;;5047121;28;20045;-75
2022/09/05 06:58:07;;;;;;;9.98;7.40;;;20.90;93.80;;;;;;5020931;28;20572;-74
2022/09/05 07:00:42;;;;;;;11.40;7.60;;;21.30;94.10;;;;;;5052257;28;20044;-74
2022/09/05 07:03:22;;;;;;;11.13;8.10;;;21.70;93.50;;;;;;5022449;28;20049;-74
2022/09/05 07:06:07;;;;;;;10.48;7.20;;;21.70;92.10;;;;;;5019123;28;20087;-74
2022/09/05 07:09:04;;;;;;;11.45;7.60;;;22.10;91.80;;;;;;5053006;28;20045;-74
2022/09/05 07:11:48;;;;;;;8.80;7.30;;;22.10;91.00;;;;;;5054318;28;20171;-74
2022/09/05 07:14:21;;;;;;;10.90;7.30;;;22.00;91.10;;;;;;5020579;28;20484;-74
2022/09/05 07:16:51;;;;;;;9.48;6.85;;;22.60;91.60;;;;;;5017510;28;20048;-74
2022/09/05 07:19:26;;;;;;;10.70;7.78;;;23.40;90.60;;;;;;5054907;28;20081;-74
2022/09/05 07:22:03;;;;;;;9.40;6.22;;;23.60;86.70;;;;;;5020171;28;20054;-74
2022/09/05 07:24:34;;;;;;;7.93;6.97;;;23.60;86.30;;;;;;5022267;28;20092;-73
2022/09/05 07:27:03;;;;;;;8.50;5.87;;;23.80;84.60;;;;;;5036201;28;20037;-74
2022/09/05 07:29:35;;;;;;;9.10;6.55;;;23.60;84.10;;;;;;5052749;28;20119;-74
2022/09/05 07:32:05;;;;;;;8.90;6.13;;;23.40;82.30;;;;;;5019672;28;20042;-74
2022/09/05 07:34:32;;;;;;;9.75;6.15;;;23.10;83.60;;;;;;5010981;28;20041;-74
2022/09/05 07:37:08;;;;;;;10.13;5.82;;;23.10;84.70;;;;;;5016283;28;20102;-76
2022/09/05 07:39:40;;;;;;;10.13;6.03;;;23.20;84.80;;;;;;5048583;28;20503;-76
2022/09/05 07:42:12;;;;;;;7.95;5.72;;;23.10;84.10;;;;;;5049181;28;20095;-76
2022/09/05 07:44:48;;;;;;;11.18;5.82;;;23.20;85.00;;;;;;5051618;28;20038;-76
2022/09/05 07:47:26;;;;;;;10.52;6.05;;;23.40;84.90;;;;;;5046609;28;20113;-77
2022/09/05 07:49:54;;;;;;;9.93;5.65;;;23.80;84.20;;;;;;5016158;28;20496;-79
2022/09/05 07:52:21;;;;;;;9.98;5.60;;;24.00;83.10;;;;;;5018327;28;20515;-79
2022/09/05 07:54:51;;;;;;;9.25;5.68;;;23.90;82.90;;;;;;5051042;28;20041;-79
2022/09/05 07:57:31;;;;;;;9.15;6.05;;;24.10;81.90;;;;;;5049293;28;20045;-79
2022/09/05 08:00:06;;;;;;;8.43;5.80;;;24.00;82.10;;;;;;5022536;28;20123;-79
2022/09/05 08:02:32;;;;;;;8.27;5.50;;;24.20;81.70;;;;;;5019276;28;20057;-79
2022/09/05 08:05:05;;;;;;;9.90;5.50;;;24.10;81.50;;;;;;5020117;28;20037;-79
2022/09/05 08:07:37;;;;;;;8.80;6.00;;;24.20;81.60;;;;;;5015904;28;20438;-79
2022/09/05 08:10:43;;;;;;;14.35;6.47;;;24.20;80.80;;;;;;5041326;28;20049;-79
2022/09/05 08:13:14;;;;;;;8.90;5.75;;;23.80;81.60;;;;;;5003986;28;20168;-79
2022/09/05 08:15:45;;;;;;;8.48;4.80;;;24.30;82.30;;;;;;5017586;28;20041;-80
2022/09/05 08:18:36;;;;;;;7.88;5.60;;;24.50;81.80;;;;;;5053746;28;20072;-78
2022/09/05 08:21:13;;;;;;;8.10;5.23;;;25.00;81.40;;;;;;5015890;28;20038;-80
2022/09/05 08:24:08;;;;;;;9.85;5.68;;;25.30;77.90;;;;;;5014078;28;20368;-79
2022/09/05 08:26:33;;;;;;;8.77;5.53;;;25.10;78.40;;;;;;5015006;28;20045;-79
2022/09/05 08:29:25;;;;;;;8.70;5.18;;;25.00;78.90;;;;;;5045520;28;20037;-79
2022/09/05 08:32:07;;;;;;;;;;;25.10;79.30;;;;;;5016620;28;20049;-79
2022/09/05 08:34:39;;;;;;;9.68;5.43;;;24.90;78.50;;;;;;5049100;28;20398;-79
2022/09/05 08:37:08;;;;;;;9.52;5.13;;;25.30;79.30;;;;;;5018573;28;20073;-80
2022/09/05 08:39:35;;;;;;;7.85;5.18;;;25.60;78.90;;;;;;5004026;28;20049;-80
2022/09/05 08:42:13;;;;;;;8.82;4.75;;;25.70;77.50;;;;;;5005604;28;20460;-80
2022/09/05 08:45:00;;;;;;;10.43;5.18;;;26.10;78.10;;;;;;5037418;28;20477;-79
2022/09/05 08:47:41;;;;;;;9.35;5.18;;;26.50;74.70;;;;;;4996422;28;20115;-79
2022/09/05 08:50:28;;;;;;;9.52;4.88;;;26.20;74.10;;;;;;5003395;28;20120;-80
2022/09/05 08:53:11;;;;;;;8.38;4.93;;;26.20;74.30;;;;;;5004933;28;20046;-80
2022/09/05 08:55:53;;;;;;;8.32;4.70;;;26.30;75.00;;;;;;5008695;28;20104;-80
2022/09/05 08:58:57;;;;;;;9.52;4.70;;;26.40;73.90;;;;;;5043783;28;20033;-80
2022/09/05 09:01:47;;;;;;;8.18;4.25;;;26.50;73.70;;;;;;4998894;28;20441;-80
2022/09/05 09:04:37;;;;;;;7.70;4.90;;;26.60;74.00;;;;;;4998135;28;20059;-80
2022/09/05 09:07:18;;;;;;;10.10;4.90;;;26.80;72.90;;;;;;4997019;28;20049;-79
2022/09/05 09:10:13;;;;;;;7.63;4.20;;;26.90;72.60;;;;;;5041583;28;20061;-80
2022/09/05 09:13:02;;;;;;;8.50;4.70;;;26.90;72.20;;;;;;5008630;28;20038;-79
2022/09/05 09:15:54;;;;;;;9.80;4.60;;;27.10;72.20;;;;;;4994616;28;20057;-80
2022/09/05 09:18:24;;;;;;;;;;;27.10;70.80;;;;;;5047443;28;20053;-79
2022/09/05 09:21:24;;;;;;;8.52;4.13;;;27.20;70.60;;;;;;5045038;28;19975;-78
2022/09/05 09:24:17;;;;;;;10.93;4.55;;;27.40;71.80;;;;;;5006940;28;20056;-80
2022/09/05 09:27:07;;;;;;;9.20;4.13;;;27.70;68.80;;;;;;5043094;28;20077;-80
2022/09/05 09:29:38;;;;;;;8.18;3.92;;;27.90;67.90;;;;;;5018652;28;20044;-79
2022/09/05 09:32:07;;;;;;;8.25;3.90;;;27.80;67.80;;;;;;5018431;28;20083;-80
2022/09/05 09:34:47;;;;;;;6.68;3.63;;;28.00;67.60;;;;;;5016804;28;20103;-79
2022/09/05 09:37:28;;;;;;;6.63;3.90;;;28.00;67.30;;;;;;5016456;28;20052;-80
2022/09/05 09:40:12;;;;;;;5.17;3.27;;;28.20;65.70;;;;;;5049502;28;20514;-79
2022/09/05 09:42:46;;;;;;;6.15;3.55;;;28.30;65.90;;;;;;5013116;28;20037;-80
2022/09/05 09:45:17;;;;;;;7.07;3.22;;;28.30;65.10;;;;;;5011633;28;20049;-80
2022/09/05 09:47:59;;;;;;;6.35;3.50;;;28.40;64.80;;;;;;5007018;28;20455;-80
2022/09/05 09:50:39;;;;;;;;;;;28.50;63.50;;;;;;5039038;28;20064;-80
2022/09/05 09:53:42;;;;;;;6.68;2.90;;;28.70;64.30;;;;;;5046399;28;19964;-79
2022/09/05 09:56:38;;;;;;;6.57;2.92;;;29.00;64.10;;;;;;5028447;28;20081;-80
2022/09/05 09:59:12;;;;;;;9.52;3.38;;;29.40;61.10;;;;;;5017538;28;20045;-80
2022/09/05 10:01:59;;;;;;;7.75;3.03;;;29.40;60.10;;;;;;5020910;28;20493;-80
2022/09/05 10:04:43;;;;;;;7.40;3.05;;;29.60;61.70;;;;;;5021074;28;20396;-80
2022/09/05 10:07:34;;;;;;;7.13;3.20;;;29.80;60.00;;;;;;5020235;28;20475;-79
2022/09/05 10:10:09;;;;;;;6.70;3.20;;;29.50;57.70;;;;;;5020682;28;20056;-80
2022/09/05 10:13:12;;;;;;;10.75;3.10;;;29.20;58.30;;;;;;5035531;28;20056;-80
2022/09/05 10:15:57;;;;;;;9.95;3.17;;;28.90;59.80;;;;;;5020010;28;20068;-81
2022/09/05 10:18:53;;;;;;;6.07;2.80;;;29.30;58.30;;;;;;5047816;28;20042;-79
2022/09/05 10:21:41;;;;;;;6.50;3.15;;;29.60;59.10;;;;;;5035305;28;20098;-80
2022/09/05 10:24:39;;;;;;;7.32;3.25;;;29.80;58.20;;;;;;5045996;28;20133;-79
2022/09/05 10:27:24;;;;;;;7.28;3.00;;;29.60;56.70;;;;;;5012568;28;20639;-79
2022/09/05 10:30:22;;;;;;;6.70;2.80;;;29.60;58.00;;;;;;5020917;28;20034;-79
2022/09/05 10:33:18;;;;;;;6.53;3.05;;;29.70;56.50;;;;;;5017832;28;20075;-78
2022/09/05 10:35:50;;;;;;;6.60;3.05;;;29.50;55.90;;;;;;5050431;28;20389;-79
2022/09/05 10:38:23;;;;;;;8.05;3.10;;;29.40;55.90;;;;;;5051152;28;20041;-79
2022/09/05 10:40:50;;;;;;;6.80;3.00;;;29.20;56.70;;;;;;5055092;28;20049;-79
2022/09/05 10:43:25;;;;;;;6.95;3.10;;;29.20;56.60;;;;;;5014734;28;20048;-79
2022/09/05 10:45:56;;;;;;;5.78;3.08;;;29.20;56.40;;;;;;5022569;28;20041;-79
2022/09/05 10:48:37;;;;;;;6.75;2.90;;;29.40;56.40;;;;;;5018781;28;20053;-79
2022/09/05 10:51:10;;;;;;;6.97;2.90;;;29.40;56.60;;;;;;5018053;28;20048;-79
2022/09/05 10:53:57;;;;;;;6.53;2.95;;;29.60;56.40;;;;;;5018000;28;20049;-80
2022/09/05 10:56:55;;;;;;;6.70;2.78;;;29.80;55.90;;;;;;5005388;28;20042;-79
2022/09/05 10:59:55;;;;;;;6.40;2.92;;;30.10;54.40;;;;;;5031821;28;20033;-80
2022/09/05 11:02:27;;;;;;;5.53;2.45;;;30.20;53.60;;;;;;5017421;28;20149;-79
2022/09/05 11:05:33;;;;;;;5.60;2.55;;;30.00;52.40;;;;;;5018658;28;20041;-80
2022/09/05 11:08:17;;;;;;;5.75;2.40;;;30.00;52.60;;;;;;5019537;28;20033;-80
2022/09/05 11:10:58;;;;;;;4.97;2.53;;;29.90;53.50;;;;;;5020241;28;20114;-79
2022/09/05 11:13:48;;;;;;;4.43;2.15;;;30.10;51.80;;;;;;5009726;28;20044;-79
2022/09/05 11:16:29;;;;;;;5.80;2.70;;;30.20;52.40;;;;;;5019099;28;20048;-79
2022/09/05 11:19:06;;;;;;;4.30;2.35;;;30.20;52.10;;;;;;4974861;28;20346;-80
2022/09/05 11:22:01;;;;;;;4.72;2.40;;;30.30;51.60;;;;;;5023060;28;20579;-80
2022/09/05 11:24:50;;;;;;;5.05;2.40;;;30.50;51.30;;;;;;5023113;28;20049;-80
2022/09/05 11:27:35;;;;;;;4.90;2.50;;;30.60;51.10;;;;;;5027513;28;20088;-79
2022/09/05 11:30:18;;;;;;;5.63;2.15;;;30.40;50.70;;;;;;5030122;28;20071;-79
2022/09/05 11:33:05;;;;;;;6.70;2.30;;;30.60;51.90;;;;;;5034447;28;20044;-79
2022/09/05 11:35:45;;;;;;;5.25;2.40;;;30.90;49.60;;;;;;5010144;28;20132;-79
2022/09/05 11:38:20;;;;;;;5.03;2.33;;;30.90;49.00;;;;;;5041738;28;20056;-79
2022/09/05 11:41:10;;;;;;;5.25;2.50;;;30.80;48.20;;;;;;5032189;28;20076;-79
2022/09/05 11:43:46;;;;;;;5.15;2.25;;;30.70;48.90;;;;;;5050092;28;20530;-79
2022/09/05 11:46:27;;;;;;;5.95;2.10;;;30.80;48.70;;;;;;5027170;28;20041;-79
2022/09/05 11:49:11;;;;;;;4.13;1.85;;;30.90;48.80;;;;;;5049865;28;20047;-79
2022/09/05 11:52:14;;;;;;;6.72;2.10;;;30.90;47.90;;;;;;5044344;28;20411;-79
2022/09/05 11:55:14;;;;;;;5.45;2.10;;;31.00;47.80;;;;;;5035107;28;20037;-78
2022/09/05 11:58:05;;;;;;;4.43;1.90;;;30.90;47.50;;;;;;5010622;28;20037;-78
2022/09/05 12:00:54;;;;;;;3.77;1.70;;;30.80;47.60;;;;;;5014532;28;20030;-79
2022/09/05 12:03:38;;;;;;;5.72;2.03;;;30.90;47.40;;;;;;5014895;28;20104;-79
2022/09/05 12:06:54;;;;;;;4.40;1.90;;;30.90;47.70;;;;;;5013999;28;20041;-79
2022/09/05 12:09:54;;;;;;;3.53;1.80;;;30.80;46.50;;;;;;5037107;28;20053;-79
2022/09/05 12:12:34;;;;;;;4.30;1.80;;;30.30;47.30;;;;;;5045622;28;20045;-79
2022/09/05 12:15:33;;;;;;;7.60;2.33;;;30.50;46.80;;;;;;5056814;28;20041;-80
2022/09/05 12:18:04;;;;;;;4.25;1.85;;;30.60;46.50;;;;;;5025327;28;20064;-79
2022/09/05 12:20:53;;;;;;;5.65;1.88;;;30.60;47.10;;;;;;5034765;28;20115;-80
2022/09/05 12:23:26;;;;;;;5.25;1.95;;;30.40;46.60;;;;;;5018016;28;20048;-80
2022/09/05 12:26:09;;;;;;;4.35;1.70;;;30.50;46.80;;;;;;5029366;28;20554;-80
2022/09/05 12:28:39;;;;;;;4.15;2.00;;;30.60;47.60;;;;;;5043922;28;20048;-80
2022/09/05 12:31:29;;;;;;;3.70;1.98;;;30.60;46.40;;;;;;5016450;28;20048;-80
2022/09/05 12:33:59;;;;;;;5.53;2.00;;;30.60;46.90;;;;;;5030016;28;20065;-80
2022/09/05 12:36:30;;;;;;;4.10;1.85;;;30.70;46.50;;;;;;5027508;28;20488;-80
2022/09/05 12:39:22;;;;;;;3.97;1.88;;;30.70;46.60;;;;;;5029044;28;20048;-79
2022/09/05 12:42:17;;;;;;;4.40;2.08;;;30.40;45.80;;;;;;4986791;28;20064;-79
2022/09/05 12:44:53;;;;;;;4.72;2.17;;;30.50;46.20;;;;;;5030152;28;20037;-80
2022/09/05 12:47:22;;;;;;;4.65;2.00;;;30.50;46.60;;;;;;5039326;28;20044;-80
2022/09/05 12:50:01;;;;;;;4.40;2.00;;;30.30;45.70;;;;;;5026421;28;20098;-81
2022/09/05 12:52:32;;;;;;;4.22;1.92;;;29.90;46.20;;;;;;5023540;28;20104;-81
2022/09/05 12:55:06;;;;;;;4.20;2.00;;;29.80;46.20;;;;;;5028144;28;20049;-80
2022/09/05 12:57:34;;;;;;;3.95;1.88;;;29.60;46.20;;;;;;5029605;28;20103;-80
2022/09/05 13:00:20;;;;;;;5.70;2.10;;;29.60;45.60;;;;;;5022188;28;20130;-80
2022/09/05 13:02:59;;;;;;;4.75;1.80;;;29.40;46.40;;;;;;5027479;28;20091;-80
2022/09/05 13:05:46;;;;;;;4.25;2.08;;;29.40;47.10;;;;;;5019790;28;20035;-80
2022/09/05 13:08:19;;;;;;;4.28;1.98;;;29.60;45.90;;;;;;5034006;28;20167;-80
2022/09/05 13:10:53;;;;;;;4.55;2.03;;;29.60;46.10;;;;;;5024591;28;20127;-80
2022/09/05 13:13:25;;;;;;;5.20;2.00;;;29.50;46.70;;;;;;5032742;28;20499;-80
2022/09/05 13:15:53;;;;;;;5.20;2.22;;;29.60;46.50;;;;;;5050180;28;20492;-80
2022/09/05 13:18:21;;;;;;;5.13;2.15;;;29.80;46.70;;;;;;5041334;28;20050;-80
2022/09/05 13:21:04;;;;;;;5.53;2.20;;;30.10;46.60;;;;;;5041322;28;20090;-81
2022/09/05 13:23:40;;;;;;;4.55;2.00;;;30.20;46.00;;;;;;5040487;28;20126;-80
2022/09/05 13:26:41;;;;;;;4.95;2.10;;;30.20;45.70;;;;;;5039548;28;20068;-80
2022/09/05 13:29:19;;;;;;;4.38;2.15;;;30.10;46.10;;;;;;5026105;28;20550;-80
2022/09/05 13:31:52;;;;;;;5.65;1.95;;;29.80;45.40;;;;;;5019601;28;20041;-80
2022/09/05 13:34:33;;;;;;;4.03;1.90;;;29.80;46.40;;;;;;5030571;28;20178;-80
2022/09/05 13:37:19;;;;;;;6.13;2.05;;;29.80;46.50;;;;;;5029340;28;20048;-79
2022/09/05 13:39:54;;;;;;;6.00;2.10;;;29.80;45.90;;;;;;5038384;28;20055;-80
2022/09/05 13:42:29;;;;;;;5.05;2.20;;;29.70;46.10;;;;;;5040556;28;20515;-81
2022/09/05 13:45:00;;;;;;;4.68;2.33;;;29.60;46.30;;;;;;5039578;28;20059;-80
2022/09/05 13:48:14;;;;;;;5.57;2.13;;;29.30;46.80;;;;;;5038816;28;20065;-76
2022/09/05 13:50:46;;;;;;;6.35;2.20;;;29.20;47.30;;;;;;5037472;28;20091;-77
2022/09/05 13:53:33;;;;;;;3.83;1.90;;;29.00;47.90;;;;;;5038551;28;20488;-77
2022/09/05 13:56:26;;;;;;;4.68;1.70;;;29.00;48.20;;;;;;5038514;28;20076;-77
2022/09/05 13:59:07;;;;;;;5.90;2.00;;;29.00;47.30;;;;;;5044825;28;20053;-77
2022/09/05 14:01:50;;;;;;;4.05;2.00;;;28.90;47.40;;;;;;5028267;28;20053;-77
2022/09/05 14:04:51;;;;;;;4.07;1.88;;;28.90;47.60;;;;;;5028606;28;20114;-77
2022/09/05 14:07:36;;;;;;;;;;;28.90;47.60;;;;;;5034612;28;20516;-77
2022/09/05 14:10:17;;;;;;;3.67;1.80;;;29.00;48.20;;;;;;5038788;28;19924;-77